sensor_id;sensor_type;location;lat;lon;timestamp;temperature;humidity
51908;DHT22;39320;53.214;6.556;2022-11-03T00:00:58;12.30;99.90
51908;DHT22;39320;53.214;6.556;2022-11-03T00:03:25;12.30;99.90
51908;DHT22;39320;53.214;6.556;2022-11-03T00:05:51;12.30;99.90
51908;DHT22;39320;53.214;6.556;2022-11-03T00:08:36;12.40;99.90
51908;DHT22;39320;53.214;6.556;2022-11-03T00:11:13;12.30;99.90
51908;DHT22;39320;53.214;6.556;2022-11-03T00:13:41;12.40;99.90
51908;DHT22;39320;53.214;6.556;2022-11-03T00:16:11;12.30;99.90
51908;DHT22;39320;53.214;6.556;2022-11-03T00:18:37;12.30;99.90
51908;DHT22;39320;53.214;6.556;2022-11-03T00:21:08;12.40;99.90
51908;DHT22;39320;53.214;6.556;2022-11-03T00:23:37;12.40;99.90
51908;DHT22;39320;53.214;6.556;2022-11-03T00:26:14;12.40;99.90
51908;DHT22;39320;53.214;6.556;2022-11-03T00:28:43;12.40;99.90
51908;DHT22;39320;53.214;6.556;2022-11-03T00:31:11;12.30;99.90
51908;DHT22;39320;53.214;6.556;2022-11-03T00:33:38;12.30;99.90
51908;DHT22;39320;53.214;6.556;2022-11-03T00:36:05;12.40;99.90
51908;DHT22;39320;53.214;6.556;2022-11-03T00:38:31;12.30;99.90
51908;DHT22;39320;53.214;6.556;2022-11-03T00:40:59;12.30;99.90
51908;DHT22;39320;53.214;6.556;2022-11-03T00:43:26;12.30;99.90
51908;DHT22;39320;53.214;6.556;2022-11-03T00:45:52;12.30;99.90
51908;DHT22;39320;53.214;6.556;2022-11-03T00:48:18;12.30;99.90
51908;DHT22;39320;53.214;6.556;2022-11-03T00:51:14;12.30;99.90
51908;DHT22;39320;53.214;6.556;2022-11-03T00:53:50;12.30;99.90
51908;DHT22;39320;53.214;6.556;2022-11-03T00:56:27;12.30;99.90
51908;DHT22;39320;53.214;6.556;2022-11-03T00:58:54;12.30;99.90
51908;DHT22;39320;53.214;6.556;2022-11-03T01:01:55;12.20;99.90
51908;DHT22;39320;53.214;6.556;2022-11-03T01:04:15;12.30;99.90
51908;DHT22;39320;53.214;6.556;2022-11-03T01:07:00;12.30;99.90
51908;DHT22;39320;53.214;6.556;2022-11-03T01:09:34;12.30;99.90
51908;DHT22;39320;53.214;6.556;2022-11-03T01:12:29;12.30;99.90
51908;DHT22;39320;53.214;6.556;2022-11-03T01:14:55;12.20;99.90
51908;DHT22;39320;53.214;6.556;2022-11-03T01:17:26;12.20;99.90
51908;DHT22;39320;53.214;6.556;2022-11-03T01:19:52;12.20;99.90
51908;DHT22;39320;53.214;6.556;2022-11-03T01:22:20;12.20;99.90
51908;DHT22;39320;53.214;6.556;2022-11-03T01:24:47;12.20;99.90
51908;DHT22;39320;53.214;6.556;2022-11-03T01:27:15;12.20;99.90
51908;DHT22;39320;53.214;6.556;2022-11-03T01:29:42;12.20;99.90
51908;DHT22;39320;53.214;6.556;2022-11-03T01:32:08;12.20;99.90
51908;DHT22;39320;53.214;6.556;2022-11-03T01:34:34;12.20;99.90
51908;DHT22;39320;53.214;6.556;2022-11-03T01:37:00;12.20;99.90
51908;DHT22;39320;53.214;6.556;2022-11-03T01:39:26;12.20;99.90
51908;DHT22;39320;53.214;6.556;2022-11-03T01:41:52;12.20;99.90
51908;DHT22;39320;53.214;6.556;2022-11-03T01:46:54;12.20;99.90
51908;DHT22;39320;53.214;6.556;2022-11-03T01:49:30;12.20;99.90
51908;DHT22;39320;53.214;6.556;2022-11-03T01:52:19;12.20;99.90
51908;DHT22;39320;53.214;6.556;2022-11-03T01:54:49;12.20;99.90
51908;DHT22;39320;53.214;6.556;2022-11-03T01:57:20;12.20;99.90
51908;DHT22;39320;53.214;6.556;2022-11-03T01:59:47;12.20;99.90
51908;DHT22;39320;53.214;6.556;2022-11-03T02:02:13;12.20;99.90
51908;DHT22;39320;53.214;6.556;2022-11-03T02:04:40;12.20;99.90
51908;DHT22;39320;53.214;6.556;2022-11-03T02:09:32;12.10;99.90
51908;DHT22;39320;53.214;6.556;2022-11-03T02:11:58;12.10;99.90
51908;DHT22;39320;53.214;6.556;2022-11-03T02:14:39;12.10;99.90
51908;DHT22;39320;53.214;6.556;2022-11-03T02:17:09;12.10;99.90
51908;DHT22;39320;53.214;6.556;2022-11-03T02:19:44;12.10;99.90
51908;DHT22;39320;53.214;6.556;2022-11-03T02:27:41;12.10;99.90
51908;DHT22;39320;53.214;6.556;2022-11-03T02:30:07;12.10;99.90
51908;DHT22;39320;53.214;6.556;2022-11-03T02:33:04;12.10;99.90
51908;DHT22;39320;53.214;6.556;2022-11-03T02:35:35;12.10;99.90
51908;DHT22;39320;53.214;6.556;2022-11-03T02:38:05;12.10;99.90
51908;DHT22;39320;53.214;6.556;2022-11-03T02:40:38;12.10;99.90
51908;DHT22;39320;53.214;6.556;2022-11-03T02:43:07;12.00;99.90
51908;DHT22;39320;53.214;6.556;2022-11-03T02:45:34;12.00;99.90
51908;DHT22;39320;53.214;6.556;2022-11-03T02:48:02;12.00;99.90
51908;DHT22;39320;53.214;6.556;2022-11-03T02:50:32;12.00;99.90
51908;DHT22;39320;53.214;6.556;2022-11-03T02:52:59;12.00;99.90
51908;DHT22;39320;53.214;6.556;2022-11-03T03:03:36;12.00;99.90
51908;DHT22;39320;53.214;6.556;2022-11-03T03:06:09;12.00;99.90
51908;DHT22;39320;53.214;6.556;2022-11-03T03:08:41;12.00;99.90
51908;DHT22;39320;53.214;6.556;2022-11-03T03:11:11;12.00;99.90
51908;DHT22;39320;53.214;6.556;2022-11-03T03:13:38;12.00;99.90
51908;DHT22;39320;53.214;6.556;2022-11-03T03:16:31;12.00;99.90
51908;DHT22;39320;53.214;6.556;2022-11-03T03:19:08;12.00;99.90
51908;DHT22;39320;53.214;6.556;2022-11-03T03:21:42;12.00;99.90
51908;DHT22;39320;53.214;6.556;2022-11-03T03:24:22;12.00;99.90
51908;DHT22;39320;53.214;6.556;2022-11-03T03:26:51;12.00;99.90
51908;DHT22;39320;53.214;6.556;2022-11-03T03:29:23;12.10;99.90
51908;DHT22;39320;53.214;6.556;2022-11-03T03:31:55;12.00;99.90
51908;DHT22;39320;53.214;6.556;2022-11-03T03:34:24;12.10;99.90
51908;DHT22;39320;53.214;6.556;2022-11-03T03:36:51;12.10;99.90
51908;DHT22;39320;53.214;6.556;2022-11-03T03:39:19;12.00;99.90
51908;DHT22;39320;53.214;6.556;2022-11-03T03:41:47;12.10;99.90
51908;DHT22;39320;53.214;6.556;2022-11-03T03:44:14;12.10;99.90
51908;DHT22;39320;53.214;6.556;2022-11-03T03:46:45;12.10;99.90
51908;DHT22;39320;53.214;6.556;2022-11-03T03:49:12;12.10;99.90
51908;DHT22;39320;53.214;6.556;2022-11-03T03:51:38;12.10;99.90
51908;DHT22;39320;53.214;6.556;2022-11-03T03:54:05;12.10;99.90
51908;DHT22;39320;53.214;6.556;2022-11-03T03:56:42;12.10;99.90
51908;DHT22;39320;53.214;6.556;2022-11-03T03:59:10;12.10;99.90
51908;DHT22;39320;53.214;6.556;2022-11-03T04:01:36;12.10;99.90
51908;DHT22;39320;53.214;6.556;2022-11-03T04:04:02;12.10;99.90
51908;DHT22;39320;53.214;6.556;2022-11-03T04:06:27;12.10;99.90
51908;DHT22;39320;53.214;6.556;2022-11-03T04:08:53;12.10;99.90
51908;DHT22;39320;53.214;6.556;2022-11-03T04:11:19;12.10;99.90
51908;DHT22;39320;53.214;6.556;2022-11-03T04:14:03;12.10;99.90
51908;DHT22;39320;53.214;6.556;2022-11-03T04:16:47;12.10;99.90
51908;DHT22;39320;53.214;6.556;2022-11-03T04:19:32;12.10;99.90
51908;DHT22;39320;53.214;6.556;2022-11-03T04:22:16;12.10;99.90
51908;DHT22;39320;53.214;6.556;2022-11-03T04:24:48;12.10;99.90
51908;DHT22;39320;53.214;6.556;2022-11-03T04:29:46;12.10;99.90
51908;DHT22;39320;53.214;6.556;2022-11-03T04:32:16;12.10;99.90
51908;DHT22;39320;53.214;6.556;2022-11-03T04:34:45;12.10;99.90
51908;DHT22;39320;53.214;6.556;2022-11-03T04:37:12;12.10;99.90
51908;DHT22;39320;53.214;6.556;2022-11-03T04:39:39;12.10;99.90
51908;DHT22;39320;53.214;6.556;2022-11-03T04:42:21;12.10;99.90
51908;DHT22;39320;53.214;6.556;2022-11-03T04:44:47;12.10;99.90
51908;DHT22;39320;53.214;6.556;2022-11-03T04:47:15;12.10;99.90
51908;DHT22;39320;53.214;6.556;2022-11-03T04:49:42;12.10;99.90
51908;DHT22;39320;53.214;6.556;2022-11-03T04:52:18;12.10;99.90
51908;DHT22;39320;53.214;6.556;2022-11-03T04:54:46;12.10;99.90
51908;DHT22;39320;53.214;6.556;2022-11-03T04:57:14;12.10;99.90
51908;DHT22;39320;53.214;6.556;2022-11-03T04:59:43;12.10;99.90
51908;DHT22;39320;53.214;6.556;2022-11-03T05:02:15;12.10;99.90
51908;DHT22;39320;53.214;6.556;2022-11-03T05:04:42;12.10;99.90
51908;DHT22;39320;53.214;6.556;2022-11-03T05:09:48;12.10;99.90
51908;DHT22;39320;53.214;6.556;2022-11-03T05:12:14;12.10;99.90
51908;DHT22;39320;53.214;6.556;2022-11-03T05:14:41;12.10;99.90
51908;DHT22;39320;53.214;6.556;2022-11-03T05:17:21;12.10;99.90
51908;DHT22;39320;53.214;6.556;2022-11-03T05:19:54;12.10;99.90
51908;DHT22;39320;53.214;6.556;2022-11-03T05:22:21;12.00;99.90
51908;DHT22;39320;53.214;6.556;2022-11-03T05:24:55;12.10;99.90
51908;DHT22;39320;53.214;6.556;2022-11-03T05:27:22;12.10;99.90
51908;DHT22;39320;53.214;6.556;2022-11-03T05:29:49;12.10;99.90
51908;DHT22;39320;53.214;6.556;2022-11-03T05:32:26;12.10;99.90
51908;DHT22;39320;53.214;6.556;2022-11-03T05:34:53;12.10;99.90
51908;DHT22;39320;53.214;6.556;2022-11-03T05:37:33;12.10;99.90
51908;DHT22;39320;53.214;6.556;2022-11-03T05:40:20;12.10;99.90
51908;DHT22;39320;53.214;6.556;2022-11-03T05:42:53;12.10;99.90
51908;DHT22;39320;53.214;6.556;2022-11-03T05:45:29;12.10;99.90
51908;DHT22;39320;53.214;6.556;2022-11-03T05:47:57;12.10;99.90
51908;DHT22;39320;53.214;6.556;2022-11-03T05:50:25;12.10;99.90
51908;DHT22;39320;53.214;6.556;2022-11-03T05:52:58;12.10;99.90
51908;DHT22;39320;53.214;6.556;2022-11-03T05:55:26;12.10;99.90
51908;DHT22;39320;53.214;6.556;2022-11-03T05:57:58;12.10;99.90
51908;DHT22;39320;53.214;6.556;2022-11-03T06:00:26;12.00;99.90
51908;DHT22;39320;53.214;6.556;2022-11-03T06:02:53;12.00;99.90
51908;DHT22;39320;53.214;6.556;2022-11-03T06:05:21;12.00;99.90
51908;DHT22;39320;53.214;6.556;2022-11-03T06:07:48;12.10;99.90
51908;DHT22;39320;53.214;6.556;2022-11-03T06:10:28;12.00;99.90
51908;DHT22;39320;53.214;6.556;2022-11-03T06:13:06;12.00;99.90
51908;DHT22;39320;53.214;6.556;2022-11-03T06:15:34;12.10;99.90
51908;DHT22;39320;53.214;6.556;2022-11-03T06:18:12;12.10;99.90
51908;DHT22;39320;53.214;6.556;2022-11-03T06:20:39;12.00;99.90
51908;DHT22;39320;53.214;6.556;2022-11-03T06:23:09;12.00;99.90
51908;DHT22;39320;53.214;6.556;2022-11-03T06:25:37;12.00;99.90
51908;DHT22;39320;53.214;6.556;2022-11-03T06:28:04;12.00;99.90
51908;DHT22;39320;53.214;6.556;2022-11-03T06:30:35;12.00;99.90
51908;DHT22;39320;53.214;6.556;2022-11-03T06:33:22;12.00;99.90
51908;DHT22;39320;53.214;6.556;2022-11-03T06:35:52;12.00;99.90
51908;DHT22;39320;53.214;6.556;2022-11-03T06:38:21;12.00;99.90
51908;DHT22;39320;53.214;6.556;2022-11-03T06:40:50;12.00;99.90
51908;DHT22;39320;53.214;6.556;2022-11-03T06:43:33;12.00;99.90
51908;DHT22;39320;53.214;6.556;2022-11-03T06:46:11;12.00;99.90
51908;DHT22;39320;53.214;6.556;2022-11-03T06:48:38;12.00;99.90
51908;DHT22;39320;53.214;6.556;2022-11-03T06:51:33;12.00;99.90
51908;DHT22;39320;53.214;6.556;2022-11-03T06:54:00;12.00;99.90
51908;DHT22;39320;53.214;6.556;2022-11-03T06:56:30;12.00;99.90
51908;DHT22;39320;53.214;6.556;2022-11-03T06:58:59;12.00;99.90
51908;DHT22;39320;53.214;6.556;2022-11-03T07:01:31;12.00;99.90
51908;DHT22;39320;53.214;6.556;2022-11-03T07:04:19;12.00;99.90
51908;DHT22;39320;53.214;6.556;2022-11-03T07:06:46;12.00;99.90
51908;DHT22;39320;53.214;6.556;2022-11-03T07:09:19;12.00;99.90
51908;DHT22;39320;53.214;6.556;2022-11-03T07:11:51;12.10;99.90
51908;DHT22;39320;53.214;6.556;2022-11-03T07:14:21;12.10;99.90
51908;DHT22;39320;53.214;6.556;2022-11-03T07:19:28;12.00;99.90
51908;DHT22;39320;53.214;6.556;2022-11-03T07:22:00;12.00;99.90
51908;DHT22;39320;53.214;6.556;2022-11-03T07:24:33;12.10;99.90
51908;DHT22;39320;53.214;6.556;2022-11-03T07:29:52;12.10;99.90
51908;DHT22;39320;53.214;6.556;2022-11-03T07:32:26;12.10;99.90
51908;DHT22;39320;53.214;6.556;2022-11-03T07:34:57;12.10;99.90
51908;DHT22;39320;53.214;6.556;2022-11-03T07:37:25;12.10;99.90
51908;DHT22;39320;53.214;6.556;2022-11-03T07:39:51;12.10;99.90
51908;DHT22;39320;53.214;6.556;2022-11-03T07:42:22;12.10;99.90
51908;DHT22;39320;53.214;6.556;2022-11-03T07:44:49;12.20;99.90
51908;DHT22;39320;53.214;6.556;2022-11-03T07:47:18;12.20;99.90
51908;DHT22;39320;53.214;6.556;2022-11-03T07:49:44;12.20;99.90
51908;DHT22;39320;53.214;6.556;2022-11-03T07:52:18;12.20;99.90
51908;DHT22;39320;53.214;6.556;2022-11-03T07:54:44;12.20;99.90
51908;DHT22;39320;53.214;6.556;2022-11-03T07:59:41;12.20;99.90
51908;DHT22;39320;53.214;6.556;2022-11-03T08:04:49;12.30;99.90
51908;DHT22;39320;53.214;6.556;2022-11-03T08:07:15;12.30;99.90
51908;DHT22;39320;53.214;6.556;2022-11-03T08:09:41;12.20;99.90
51908;DHT22;39320;53.214;6.556;2022-11-03T08:12:07;12.30;99.90
51908;DHT22;39320;53.214;6.556;2022-11-03T08:14:32;12.30;99.90
51908;DHT22;39320;53.214;6.556;2022-11-03T08:16:58;12.40;99.90
51908;DHT22;39320;53.214;6.556;2022-11-03T08:19:24;12.40;99.90
51908;DHT22;39320;53.214;6.556;2022-11-03T08:21:49;12.40;99.90
51908;DHT22;39320;53.214;6.556;2022-11-03T08:24:15;12.40;99.90
51908;DHT22;39320;53.214;6.556;2022-11-03T08:26:41;12.40;99.90
51908;DHT22;39320;53.214;6.556;2022-11-03T08:29:07;12.40;99.90
51908;DHT22;39320;53.214;6.556;2022-11-03T08:31:33;12.50;99.90
51908;DHT22;39320;53.214;6.556;2022-11-03T08:33:58;12.50;99.90
51908;DHT22;39320;53.214;6.556;2022-11-03T08:36:24;12.50;99.90
51908;DHT22;39320;53.214;6.556;2022-11-03T08:38:50;12.60;99.90
51908;DHT22;39320;53.214;6.556;2022-11-03T08:41:15;12.60;99.90
51908;DHT22;39320;53.214;6.556;2022-11-03T08:43:41;12.60;99.90
51908;DHT22;39320;53.214;6.556;2022-11-03T08:46:07;12.60;99.90
51908;DHT22;39320;53.214;6.556;2022-11-03T08:48:33;12.70;99.90
51908;DHT22;39320;53.214;6.556;2022-11-03T08:50:59;12.70;99.90
51908;DHT22;39320;53.214;6.556;2022-11-03T08:53:25;12.80;99.90
51908;DHT22;39320;53.214;6.556;2022-11-03T08:55:54;12.80;99.90
51908;DHT22;39320;53.214;6.556;2022-11-03T08:58:21;12.80;99.90
51908;DHT22;39320;53.214;6.556;2022-11-03T09:00:48;12.80;99.90
51908;DHT22;39320;53.214;6.556;2022-11-03T09:03:14;12.90;99.90
51908;DHT22;39320;53.214;6.556;2022-11-03T09:05:41;12.90;99.90
51908;DHT22;39320;53.214;6.556;2022-11-03T09:08:07;12.90;99.90
51908;DHT22;39320;53.214;6.556;2022-11-03T09:10:33;12.90;99.90
51908;DHT22;39320;53.214;6.556;2022-11-03T09:12:59;12.90;99.90
51908;DHT22;39320;53.214;6.556;2022-11-03T09:15:25;12.90;99.90
51908;DHT22;39320;53.214;6.556;2022-11-03T09:17:51;13.00;99.90
51908;DHT22;39320;53.214;6.556;2022-11-03T09:20:17;13.00;99.90
51908;DHT22;39320;53.214;6.556;2022-11-03T09:22:43;13.00;99.90
51908;DHT22;39320;53.214;6.556;2022-11-03T09:25:09;13.00;99.90
51908;DHT22;39320;53.214;6.556;2022-11-03T09:27:34;13.00;99.90
51908;DHT22;39320;53.214;6.556;2022-11-03T09:30:00;13.10;99.90
51908;DHT22;39320;53.214;6.556;2022-11-03T09:32:26;13.10;99.90
51908;DHT22;39320;53.214;6.556;2022-11-03T09:34:52;13.10;99.90
51908;DHT22;39320;53.214;6.556;2022-11-03T09:37:18;13.10;99.90
51908;DHT22;39320;53.214;6.556;2022-11-03T09:39:43;13.10;99.90
51908;DHT22;39320;53.214;6.556;2022-11-03T09:42:11;13.10;99.90
51908;DHT22;39320;53.214;6.556;2022-11-03T09:44:37;13.20;99.90
51908;DHT22;39320;53.214;6.556;2022-11-03T09:47:04;13.20;99.90
51908;DHT22;39320;53.214;6.556;2022-11-03T09:49:31;13.20;99.90
51908;DHT22;39320;53.214;6.556;2022-11-03T09:52:02;13.30;99.90
51908;DHT22;39320;53.214;6.556;2022-11-03T09:54:28;13.30;99.90
51908;DHT22;39320;53.214;6.556;2022-11-03T09:57:08;13.30;99.90
51908;DHT22;39320;53.214;6.556;2022-11-03T09:59:36;13.30;99.90
51908;DHT22;39320;53.214;6.556;2022-11-03T10:02:02;13.30;99.90
51908;DHT22;39320;53.214;6.556;2022-11-03T10:04:28;13.40;99.90
51908;DHT22;39320;53.214;6.556;2022-11-03T10:06:56;13.40;99.90
51908;DHT22;39320;53.214;6.556;2022-11-03T10:09:22;13.50;99.90
51908;DHT22;39320;53.214;6.556;2022-11-03T10:11:51;13.50;99.90
51908;DHT22;39320;53.214;6.556;2022-11-03T10:14:19;13.50;99.90
51908;DHT22;39320;53.214;6.556;2022-11-03T10:17:05;13.50;99.90
51908;DHT22;39320;53.214;6.556;2022-11-03T10:19:31;13.60;99.90
51908;DHT22;39320;53.214;6.556;2022-11-03T10:22:00;13.60;99.90
51908;DHT22;39320;53.214;6.556;2022-11-03T10:24:25;13.70;99.90
51908;DHT22;39320;53.214;6.556;2022-11-03T10:26:52;13.70;99.90
51908;DHT22;39320;53.214;6.556;2022-11-03T10:29:25;13.70;99.90
51908;DHT22;39320;53.214;6.556;2022-11-03T10:31:54;13.70;99.90
51908;DHT22;39320;53.214;6.556;2022-11-03T10:34:40;13.70;99.90
51908;DHT22;39320;53.214;6.556;2022-11-03T10:39:37;13.80;99.90
51908;DHT22;39320;53.214;6.556;2022-11-03T10:42:03;13.90;99.90
51908;DHT22;39320;53.214;6.556;2022-11-03T10:44:29;13.90;99.90
51908;DHT22;39320;53.214;6.556;2022-11-03T10:47:00;13.90;99.90
51908;DHT22;39320;53.214;6.556;2022-11-03T10:49:28;13.90;99.90
51908;DHT22;39320;53.214;6.556;2022-11-03T10:52:08;13.90;99.90
51908;DHT22;39320;53.214;6.556;2022-11-03T10:54:39;14.00;99.90
51908;DHT22;39320;53.214;6.556;2022-11-03T10:57:04;14.00;99.90
51908;DHT22;39320;53.214;6.556;2022-11-03T10:59:31;14.10;99.90
51908;DHT22;39320;53.214;6.556;2022-11-03T11:01:59;14.10;99.90
51908;DHT22;39320;53.214;6.556;2022-11-03T11:04:25;14.10;99.90
51908;DHT22;39320;53.214;6.556;2022-11-03T11:06:51;14.30;99.90
51908;DHT22;39320;53.214;6.556;2022-11-03T11:09:25;14.30;99.90
51908;DHT22;39320;53.214;6.556;2022-11-03T11:12:13;14.30;99.90
51908;DHT22;39320;53.214;6.556;2022-11-03T11:17:42;14.40;99.90
51908;DHT22;39320;53.214;6.556;2022-11-03T11:20:18;14.50;99.90
51908;DHT22;39320;53.214;6.556;2022-11-03T11:22:49;14.60;99.90
51908;DHT22;39320;53.214;6.556;2022-11-03T11:25:17;14.70;99.90
51908;DHT22;39320;53.214;6.556;2022-11-03T11:37:39;14.90;99.90
51908;DHT22;39320;53.214;6.556;2022-11-03T11:40:13;14.90;99.90
51908;DHT22;39320;53.214;6.556;2022-11-03T11:48:31;15.00;99.90
51908;DHT22;39320;53.214;6.556;2022-11-03T11:50:58;14.90;99.90
51908;DHT22;39320;53.214;6.556;2022-11-03T11:53:25;14.90;99.90
51908;DHT22;39320;53.214;6.556;2022-11-03T11:56:01;14.90;99.90
51908;DHT22;39320;53.214;6.556;2022-11-03T11:58:34;15.00;99.90
51908;DHT22;39320;53.214;6.556;2022-11-03T12:01:22;15.00;99.90
51908;DHT22;39320;53.214;6.556;2022-11-03T12:03:50;15.00;99.90
51908;DHT22;39320;53.214;6.556;2022-11-03T12:06:34;14.90;99.90
51908;DHT22;39320;53.214;6.556;2022-11-03T12:09:14;15.00;99.90
51908;DHT22;39320;53.214;6.556;2022-11-03T12:11:48;15.00;99.90
51908;DHT22;39320;53.214;6.556;2022-11-03T12:14:34;14.90;99.90
51908;DHT22;39320;53.214;6.556;2022-11-03T12:19:43;15.00;99.90
51908;DHT22;39320;53.214;6.556;2022-11-03T12:24:54;14.90;99.90
51908;DHT22;39320;53.214;6.556;2022-11-03T12:29:50;14.90;99.90
51908;DHT22;39320;53.214;6.556;2022-11-03T12:32:16;14.90;99.90
51908;DHT22;39320;53.214;6.556;2022-11-03T12:34:42;15.00;99.90
51908;DHT22;39320;53.214;6.556;2022-11-03T12:37:08;14.90;99.90
51908;DHT22;39320;53.214;6.556;2022-11-03T12:39:34;14.90;99.90
51908;DHT22;39320;53.214;6.556;2022-11-03T12:42:00;14.90;99.90
51908;DHT22;39320;53.214;6.556;2022-11-03T12:44:26;14.90;99.90
51908;DHT22;39320;53.214;6.556;2022-11-03T12:46:52;14.80;99.90
51908;DHT22;39320;53.214;6.556;2022-11-03T12:49:18;14.90;99.90
51908;DHT22;39320;53.214;6.556;2022-11-03T12:51:44;14.90;99.90
51908;DHT22;39320;53.214;6.556;2022-11-03T12:54:10;14.90;99.90
51908;DHT22;39320;53.214;6.556;2022-11-03T12:56:35;14.90;99.90
51908;DHT22;39320;53.214;6.556;2022-11-03T12:59:01;14.90;99.90
51908;DHT22;39320;53.214;6.556;2022-11-03T13:01:27;14.90;99.90
51908;DHT22;39320;53.214;6.556;2022-11-03T13:03:53;14.90;99.90
51908;DHT22;39320;53.214;6.556;2022-11-03T13:06:18;14.90;99.90
51908;DHT22;39320;53.214;6.556;2022-11-03T13:08:44;14.90;99.90
51908;DHT22;39320;53.214;6.556;2022-11-03T13:11:11;14.90;99.90
51908;DHT22;39320;53.214;6.556;2022-11-03T13:13:55;14.90;99.90
51908;DHT22;39320;53.214;6.556;2022-11-03T13:16:21;14.90;99.90
51908;DHT22;39320;53.214;6.556;2022-11-03T13:18:48;15.00;99.90
51908;DHT22;39320;53.214;6.556;2022-11-03T13:21:13;15.00;99.90
51908;DHT22;39320;53.214;6.556;2022-11-03T13:23:39;15.20;99.90
51908;DHT22;39320;53.214;6.556;2022-11-03T13:26:05;15.10;99.90
51908;DHT22;39320;53.214;6.556;2022-11-03T13:28:31;15.10;99.90
51908;DHT22;39320;53.214;6.556;2022-11-03T13:30:57;15.10;99.90
51908;DHT22;39320;53.214;6.556;2022-11-03T13:33:23;15.10;99.90
51908;DHT22;39320;53.214;6.556;2022-11-03T13:35:49;15.10;99.90
51908;DHT22;39320;53.214;6.556;2022-11-03T13:38:15;15.10;99.90
51908;DHT22;39320;53.214;6.556;2022-11-03T13:40:41;15.10;99.90
51908;DHT22;39320;53.214;6.556;2022-11-03T13:43:06;15.10;99.90
51908;DHT22;39320;53.214;6.556;2022-11-03T13:45:33;15.10;99.90
51908;DHT22;39320;53.214;6.556;2022-11-03T13:47:58;15.00;99.90
51908;DHT22;39320;53.214;6.556;2022-11-03T13:50:24;15.00;99.90
51908;DHT22;39320;53.214;6.556;2022-11-03T13:52:50;15.00;99.90
51908;DHT22;39320;53.214;6.556;2022-11-03T13:55:16;15.00;99.90
51908;DHT22;39320;53.214;6.556;2022-11-03T13:57:42;14.90;99.90
51908;DHT22;39320;53.214;6.556;2022-11-03T14:00:10;14.90;99.90
51908;DHT22;39320;53.214;6.556;2022-11-03T14:02:39;14.90;99.90
51908;DHT22;39320;53.214;6.556;2022-11-03T14:05:05;14.80;99.90
51908;DHT22;39320;53.214;6.556;2022-11-03T14:07:31;14.80;99.90
51908;DHT22;39320;53.214;6.556;2022-11-03T14:09:58;14.80;99.90
51908;DHT22;39320;53.214;6.556;2022-11-03T14:12:23;14.80;99.90
51908;DHT22;39320;53.214;6.556;2022-11-03T14:14:58;14.80;99.90
51908;DHT22;39320;53.214;6.556;2022-11-03T14:17:24;14.80;99.90
51908;DHT22;39320;53.214;6.556;2022-11-03T14:19:50;14.80;99.90
51908;DHT22;39320;53.214;6.556;2022-11-03T14:22:17;14.80;99.90
51908;DHT22;39320;53.214;6.556;2022-11-03T14:24:43;14.80;99.90
51908;DHT22;39320;53.214;6.556;2022-11-03T14:27:08;14.80;99.90
51908;DHT22;39320;53.214;6.556;2022-11-03T14:29:34;14.80;99.90
51908;DHT22;39320;53.214;6.556;2022-11-03T14:32:00;14.80;99.90
51908;DHT22;39320;53.214;6.556;2022-11-03T14:34:26;14.70;99.90
51908;DHT22;39320;53.214;6.556;2022-11-03T14:36:51;14.70;99.90
51908;DHT22;39320;53.214;6.556;2022-11-03T14:39:17;14.70;99.90
51908;DHT22;39320;53.214;6.556;2022-11-03T14:41:43;14.70;99.90
51908;DHT22;39320;53.214;6.556;2022-11-03T14:44:34;14.70;99.90
51908;DHT22;39320;53.214;6.556;2022-11-03T14:47:00;14.60;99.90
51908;DHT22;39320;53.214;6.556;2022-11-03T14:49:27;14.70;99.90
51908;DHT22;39320;53.214;6.556;2022-11-03T14:51:53;14.60;99.90
51908;DHT22;39320;53.214;6.556;2022-11-03T14:54:21;14.70;99.90
51908;DHT22;39320;53.214;6.556;2022-11-03T14:56:47;14.70;99.90
51908;DHT22;39320;53.214;6.556;2022-11-03T14:59:14;14.60;99.90
51908;DHT22;39320;53.214;6.556;2022-11-03T15:01:40;14.60;99.90
51908;DHT22;39320;53.214;6.556;2022-11-03T15:04:06;14.60;99.90
51908;DHT22;39320;53.214;6.556;2022-11-03T15:06:36;14.60;99.90
51908;DHT22;39320;53.214;6.556;2022-11-03T15:09:03;14.60;99.90
51908;DHT22;39320;53.214;6.556;2022-11-03T15:11:29;14.60;99.90
51908;DHT22;39320;53.214;6.556;2022-11-03T15:13:55;14.60;99.90
51908;DHT22;39320;53.214;6.556;2022-11-03T15:16:21;14.60;99.90
51908;DHT22;39320;53.214;6.556;2022-11-03T15:18:47;14.60;99.90
51908;DHT22;39320;53.214;6.556;2022-11-03T15:21:13;14.60;99.90
51908;DHT22;39320;53.214;6.556;2022-11-03T15:23:40;14.60;99.90
51908;DHT22;39320;53.214;6.556;2022-11-03T15:26:06;14.60;99.90
51908;DHT22;39320;53.214;6.556;2022-11-03T15:28:33;14.50;99.90
51908;DHT22;39320;53.214;6.556;2022-11-03T15:30:59;14.60;99.90
51908;DHT22;39320;53.214;6.556;2022-11-03T15:33:26;14.60;99.90
51908;DHT22;39320;53.214;6.556;2022-11-03T15:35:51;14.50;99.90
51908;DHT22;39320;53.214;6.556;2022-11-03T15:38:17;14.50;99.90
51908;DHT22;39320;53.214;6.556;2022-11-03T15:40:44;14.50;99.90
51908;DHT22;39320;53.214;6.556;2022-11-03T15:43:10;14.50;99.90
51908;DHT22;39320;53.214;6.556;2022-11-03T15:45:36;14.50;99.90
51908;DHT22;39320;53.214;6.556;2022-11-03T15:48:03;14.50;99.90
51908;DHT22;39320;53.214;6.556;2022-11-03T15:50:29;14.50;99.90
51908;DHT22;39320;53.214;6.556;2022-11-03T15:52:55;14.50;99.90
51908;DHT22;39320;53.214;6.556;2022-11-03T15:55:21;14.50;99.90
51908;DHT22;39320;53.214;6.556;2022-11-03T15:57:48;14.50;99.90
51908;DHT22;39320;53.214;6.556;2022-11-03T16:00:14;14.40;99.90
51908;DHT22;39320;53.214;6.556;2022-11-03T16:02:40;14.40;99.90
51908;DHT22;39320;53.214;6.556;2022-11-03T16:05:07;14.40;99.90
51908;DHT22;39320;53.214;6.556;2022-11-03T16:07:33;14.30;99.90
51908;DHT22;39320;53.214;6.556;2022-11-03T16:09:59;14.30;99.90
51908;DHT22;39320;53.214;6.556;2022-11-03T16:12:25;14.30;99.90
51908;DHT22;39320;53.214;6.556;2022-11-03T16:14:51;14.30;99.90
51908;DHT22;39320;53.214;6.556;2022-11-03T16:17:17;14.30;99.90
51908;DHT22;39320;53.214;6.556;2022-11-03T16:19:43;14.30;99.90
51908;DHT22;39320;53.214;6.556;2022-11-03T16:22:09;14.30;99.90
51908;DHT22;39320;53.214;6.556;2022-11-03T16:24:35;14.30;99.90
51908;DHT22;39320;53.214;6.556;2022-11-03T16:27:02;14.30;99.90
51908;DHT22;39320;53.214;6.556;2022-11-03T16:29:27;14.30;99.90
51908;DHT22;39320;53.214;6.556;2022-11-03T16:31:53;14.30;99.90
51908;DHT22;39320;53.214;6.556;2022-11-03T16:34:19;14.20;99.90
51908;DHT22;39320;53.214;6.556;2022-11-03T16:36:45;14.30;99.90
51908;DHT22;39320;53.214;6.556;2022-11-03T16:39:11;14.20;99.90
51908;DHT22;39320;53.214;6.556;2022-11-03T16:41:37;14.30;99.90
51908;DHT22;39320;53.214;6.556;2022-11-03T16:44:03;14.20;99.90
51908;DHT22;39320;53.214;6.556;2022-11-03T16:46:29;14.20;99.90